Página principal
METAR-TAF:

METAR-TAF

Aeroportos :

Shymkent, Cazaquistão

latitude: 42-19N, longitude: 069-42E, altura: 552 m

Observação actual do tempo

O boletim foi feito há 24 minutos, às 14:00 UTC
Vento 4 kt de nor-nordeste
Temperatura 20°C
Humidade 32%
Pressão 1020 hPa
Visibilidade 10 km ou mais
sem nuvens abaixo de 1500 metros e sem cumulonimbus

METAR: UAII 241400Z 02002MPS CAVOK 20/03 Q1020 R10/0///70 NOSIG RMK QFE729/0972

Hora: 20:24 (14:24 UTC)

Previsão

O boletim foi feito há 3 horas e 24 minutos, às 11:00 UTC
Previsão válida de 24 às 12 UTC a 25 às 12 UTC
Vento 14 kt de oes-noroeste
Visibilidade: 6000 m
Nuvens dispersasa uma altura de 5000 ft
Nuvens fragmentadasa uma altura de 10000 ft
Temporariamente
de 24 às 12 UTC a 24 às 16 UTC
Vento 10 kt de nordeste
Temporariamente
de 24 às 16 UTC a 25 às 02 UTC
Vento 10 kt de es-sudeste

TAF: UAII 241100Z 2412/2512 30007MPS 6000 SCT050 BKN100 TX27/2509Z TN11/2501Z TEMPO 2412/2416 05005MPS TEMPO 2416/2502 12005MPS

Observações e previsões do tempo de mais de 4000 aeroportos (mensagens METAR e TAF).

As estações disponíveis são os pontos amarelos e vermelhos sobre o mapa.

Mova o rato sobre o mapa para ver o nome da estação.

Depois clique no ponto para visualizar as observações e previsões meteorológicas.

Para alterar o mapa : clique nos botões verdes com uma cruz preta para aumentar o zoom; no botão verde com uma pitada de zoom; ou nas setas verdes para mapas adjacentes.


METAR-TAF: